Time;durP1;ratioP1;P1;durP2;ratioP2;P2;SDS_P1;SDS_P2;PMS_P1;PMS_P2;Temp;Humidity;BMP_temperature;BMP_pressure;BME280_temperature;BME280_humidity;BME280_pressure;Samples;Min_cycle;Max_cycle;Signal;HPM_P1;HPM_P2
2021/07/23 02:49:21;;;;;;;;;;;17.10;99.90;;;;;;5;36015572;39016737;-75
2021/07/23 02:52:36;;;;;;;;;;;17.10;99.90;;;;;;5;36015481;39016604;-75
2021/07/23 02:55:51;;;;;;;;;;;17.10;99.90;;;;;;5;36015430;39764985;-76
2021/07/23 02:59:01;;;;;;;;;;;17.10;99.90;;;;;;5;36014038;39016070;-76
2021/07/23 03:02:13;;;;;;;;;;;17.10;99.90;;;;;;5;36013607;39015024;-75
2021/07/23 03:05:26;;;;;;;;;;;17.00;99.90;;;;;;5;36013078;39015417;-76
2021/07/23 03:08:39;;;;;;;;;;;17.00;99.90;;;;;;5;36014307;39016470;-75
2021/07/23 03:11:48;;;;;;;;;;;17.00;99.90;;;;;;5;36013096;39015448;-74
2021/07/23 03:15:02;;;;;;;;;;;17.00;99.90;;;;;;5;36012825;39016752;-75
2021/07/23 03:18:17;;;;;;;;;;;16.90;99.90;;;;;;5;36014905;39015633;-75
2021/07/23 03:21:30;;;;;;;;;;;16.90;99.90;;;;;;5;36013329;39016316;-76
2021/07/23 03:24:40;;;;;;;;;;;16.90;99.90;;;;;;5;36013557;39015542;-76
2021/07/23 03:27:54;;;;;;;;;;;16.90;99.90;;;;;;5;36013221;39765755;-76
2021/07/23 03:31:10;;;;;;;;;;;16.80;99.90;;;;;;5;36015101;39015333;-76
2021/07/23 03:34:23;;;;;;;;;;;16.90;99.90;;;;;;5;36013802;39016433;-75
2021/07/23 03:37:33;;;;;;;;;;;16.90;99.90;;;;;;5;36013956;39016277;-75
2021/07/23 03:40:45;;;;;;;;;;;16.90;99.90;;;;;;5;36014149;39015764;-75
2021/07/23 03:43:58;;;;;;;;;;;16.90;99.90;;;;;;5;36013800;39016091;-75
2021/07/23 03:47:11;;;;;;;;;;;17.00;99.90;;;;;;5;36013350;39016298;-76
2021/07/23 03:50:20;;;;;;;;;;;17.00;99.90;;;;;;5;36013209;39015364;-75
2021/07/23 03:53:33;;;;;;;;;;;17.00;99.90;;;;;;5;36012942;39016172;-75
2021/07/23 03:56:45;;;;;;;;;;;17.00;99.90;;;;;;5;36013044;39016134;-75
2021/07/23 04:00:00;;;;;;;;;;;17.00;99.90;;;;;;5;36013390;39765601;-75
2021/07/23 04:03:09;;;;;;;;;;;17.00;99.90;;;;;;5;36014337;39019577;-75
2021/07/23 04:06:22;;;;;;;;;;;17.00;99.90;;;;;;5;36013531;39017183;-75
2021/07/23 04:09:35;;;;;;;;;;;17.10;99.90;;;;;;5;36013249;39016005;-75
2021/07/23 04:12:47;;;;;;;;;;;17.10;99.90;;;;;;5;36013599;39015904;-75
2021/07/23 04:15:57;;;;;;;;;;;17.10;99.90;;;;;;5;36013422;39016241;-76
2021/07/23 04:19:09;;;;;;;;;;;17.10;99.90;;;;;;5;36014086;39015801;-75
2021/07/23 04:22:22;;;;;;;;;;;17.10;99.90;;;;;;5;36013247;39016879;-76
2021/07/23 04:25:38;;;;;;;;;;;17.10;99.90;;;;;;5;36013435;39014930;-75
2021/07/23 04:28:47;;;;;;;;;;;17.10;99.90;;;;;;5;36014568;39015045;-75
2021/07/23 04:32:01;;;;;;;;;;;17.10;99.90;;;;;;5;36013534;39764623;-75
2021/07/23 04:35:14;;;;;;;;;;;17.10;99.90;;;;;;5;36014040;39015352;-75
2021/07/23 04:38:27;;;;;;;;;;;17.30;99.90;;;;;;5;36013713;39015783;-75
2021/07/23 04:41:36;;;;;;;;;;;17.40;99.90;;;;;;5;36013522;39018656;-75
2021/07/23 04:44:49;;;;;;;;;;;17.50;99.90;;;;;;5;36013677;39015607;-75
2021/07/23 04:48:02;;;;;;;;;;;17.50;99.90;;;;;;5;36013310;39015777;-76
2021/07/23 04:51:15;;;;;;;;;;;17.60;99.90;;;;;;5;36013370;39016506;-76
2021/07/23 04:54:25;;;;;;;;;;;17.70;99.90;;;;;;5;36013786;39016201;-75
2021/07/23 04:57:43;;;;;;;;;;;17.80;99.90;;;;;;5;36013650;39016205;-75
2021/07/23 05:00:56;;;;;;;;;;;17.90;99.90;;;;;;5;36013391;39018005;-75
2021/07/23 05:07:58;;;;;;;;;;;18.20;99.90;;;;;;5;36013756;39016669;-74
2021/07/23 05:11:13;;;;;;;;;;;18.30;99.90;;;;;;5;36013432;39016331;-76
2021/07/23 05:14:27;;;;;;;;;;;18.40;99.90;;;;;;5;36013623;39015776;-76
2021/07/23 05:17:39;;;;;;;;;;;18.40;99.90;;;;;;5;36015320;39015001;-76
2021/07/23 05:20:49;;;;;;;;;;;18.50;99.90;;;;;;5;36014479;39016024;-76
2021/07/23 05:24:03;;;;;;;;;;;18.60;99.90;;;;;;5;36014656;39017559;-75
2021/07/23 05:27:16;;;;;;;;;;;18.70;99.90;;;;;;5;36013134;39016550;-75
2021/07/23 05:30:29;;;;;;;;;;;18.70;99.90;;;;;;5;36013558;39015218;-75
2021/07/23 05:33:39;;;;;;;;;;;18.80;99.90;;;;;;5;36014192;39015128;-75
2021/07/23 05:36:55;;;;;;;;;;;18.70;99.90;;;;;;5;36013141;39767026;-75
2021/07/23 05:40:08;;;;;;;;;;;18.80;99.90;;;;;;5;36012959;39016804;-75
2021/07/23 05:43:21;;;;;;;;;;;19.00;99.90;;;;;;5;36013115;39015939;-75
2021/07/23 05:46:34;;;;;;;;;;;19.00;99.90;;;;;;5;36014860;39015754;-76
2021/07/23 05:49:46;;;;;;;;;;;19.20;99.90;;;;;;5;36013651;39016281;-75
2021/07/23 05:52:59;;;;;;;;;;;19.40;99.90;;;;;;5;36012134;39014431;-75
2021/07/23 05:56:11;;;;;;;;;;;19.50;99.90;;;;;;5;36014508;39016422;-75
2021/07/23 05:59:21;;;;;;;;;;;19.60;99.90;;;;;;5;36013510;39016848;-75
2021/07/23 06:02:34;;;;;;;;;;;19.70;99.90;;;;;;5;36014730;39016707;-76
2021/07/23 06:05:47;;;;;;;;;;;19.90;99.90;;;;;;5;36013201;39015582;-76
2021/07/23 06:09:01;;;;;;;;;;;19.90;99.90;;;;;;5;36014552;39764991;-76
2021/07/23 06:12:11;;;;;;;;;;;20.00;99.90;;;;;;5;36016179;39015449;-75
2021/07/23 06:15:24;;;;;;;;;;;20.30;99.90;;;;;;5;36013382;39015684;-75
2021/07/23 06:18:37;;;;;;;;;;;20.40;99.90;;;;;;5;36015173;39015939;-75
2021/07/23 06:21:49;;;;;;;;;;;20.60;99.90;;;;;;5;36014236;39016825;-75
2021/07/23 06:24:59;;;;;;;;;;;20.70;99.90;;;;;;5;36014519;39015588;-75
2021/07/23 06:28:12;;;;;;;;;;;20.60;99.90;;;;;;5;36013578;39015404;-76
2021/07/23 06:31:24;;;;;;;;;;;20.70;99.90;;;;;;5;36014206;39015487;-76
2021/07/23 06:34:37;;;;;;;;;;;20.80;99.90;;;;;;5;36013225;39015432;-75
2021/07/23 06:37:47;;;;;;;;;;;20.90;99.90;;;;;;5;36013667;39015732;-75
2021/07/23 06:41:04;;;;;;;;;;;21.00;99.90;;;;;;5;36013641;39765964;-76
2021/07/23 06:44:16;;;;;;;;;;;21.20;99.90;;;;;;5;36013356;39015410;-75
2021/07/23 06:47:29;;;;;;;;;;;21.20;99.90;;;;;;5;36012948;39016994;-75
2021/07/23 06:50:38;;;;;;;;;;;21.40;99.90;;;;;;5;36014742;39015147;-76
2021/07/23 06:53:51;;;;;;;;;;;21.50;99.90;;;;;;5;36013570;39016017;-76
2021/07/23 06:57:04;;;;;;;;;;;21.70;99.90;;;;;;5;36013130;39016656;-76
2021/07/23 07:00:54;;;;;;;;;;;21.80;99.90;;;;;;5;36013176;39016322;-76
2021/07/23 07:04:04;;;;;;;;;;;21.90;99.90;;;;;;5;36014546;39016211;-76
2021/07/23 07:07:17;;;;;;;;;;;22.10;99.90;;;;;;5;36013438;39015593;-75
2021/07/23 07:10:30;;;;;;;;;;;22.30;99.90;;;;;;5;36015382;39015436;-76
2021/07/23 07:13:44;;;;;;;;;;;22.40;99.90;;;;;;5;36014865;39765019;-76
2021/07/23 07:16:55;;;;;;;;;;;22.50;99.90;;;;;;5;36014236;39015126;-75
2021/07/23 07:20:08;;;;;;;;;;;22.60;99.90;;;;;;5;36012800;39016866;-75
2021/07/23 07:23:20;;;;;;;;;;;22.70;99.70;;;;;;5;36013800;39014903;-75
2021/07/23 07:26:33;;;;;;;;;;;22.90;99.90;;;;;;5;36013490;39015523;-86
2021/07/23 07:29:43;;;;;;;;;;;23.00;99.80;;;;;;5;36013489;39015892;-86
2021/07/23 07:32:56;;;;;;;;;;;23.30;99.30;;;;;;5;36013176;39016078;-85
2021/07/23 07:36:09;;;;;;;;;;;23.50;99.00;;;;;;5;36014082;39015384;-86
2021/07/23 07:39:22;;;;;;;;;;;23.70;98.30;;;;;;5;36013959;39015005;-86
2021/07/23 07:42:32;;;;;;;;;;;23.90;97.50;;;;;;5;36014135;39015133;-86
2021/07/23 07:45:46;;;;;;;;;;;24.10;96.70;;;;;;5;36013919;39766117;-86
2021/07/23 07:48:58;;;;;;;;;;;24.20;96.70;;;;;;5;36013433;39015070;-85
2021/07/23 07:52:11;;;;;;;;;;;24.40;96.80;;;;;;5;36013898;39014757;-86
2021/07/23 07:55:21;;;;;;;;;;;24.70;95.10;;;;;;5;36014523;39014792;-85
2021/07/23 07:58:33;;;;;;;;;;;24.90;94.40;;;;;;5;36013560;39015282;-86
2021/07/23 08:01:46;;;;;;;;;;;25.00;93.40;;;;;;5;36013303;39015454;-84
2021/07/23 08:04:59;;;;;;;;;;;24.90;93.50;;;;;;5;36013210;39015840;-85
2021/07/23 08:08:10;;;;;;;;;;;25.10;94.70;;;;;;5;36013087;39015191;-86
2021/07/23 08:11:22;;;;;;;;;;;25.10;93.30;;;;;;5;36012933;39016725;-85
2021/07/23 08:14:35;;;;;;;;;;;24.90;93.20;;;;;;5;36013143;39015547;-84
2021/07/23 08:17:50;;;;;;;;;;;24.90;93.40;;;;;;5;36012939;39764517;-85
2021/07/23 08:21:01;;;;;;;;;;;25.20;94.00;;;;;;5;36013225;39016081;-84
2021/07/23 08:24:14;;;;;;;;;;;25.50;94.00;;;;;;5;36013245;39015688;-87
2021/07/23 08:27:28;;;;;;;;;;;25.80;93.30;;;;;;5;36012807;39015751;-86
2021/07/23 08:30:40;;;;;;;;;;;26.00;92.50;;;;;;5;36014417;39016180;-85
2021/07/23 08:33:50;;;;;;;;;;;26.30;92.80;;;;;;5;36014017;39016805;-86
2021/07/23 08:37:03;;;;;;;;;;;26.70;91.80;;;;;;5;36013371;39015847;-84
2021/07/23 08:40:16;;;;;;;;;;;27.00;91.00;;;;;;5;36013599;39016332;-85
2021/07/23 08:43:29;;;;;;;;;;;27.40;88.90;;;;;;5;36014516;39014913;-86
2021/07/23 08:46:38;;;;;;;;;;;27.90;88.20;;;;;;5;36013283;39015565;-84
2021/07/23 08:49:53;;;;;;;;;;;28.40;84.90;;;;;;5;36013317;39765700;-84
2021/07/23 08:53:12;;;;;;;;;;;29.20;81.90;;;;;;5;36013718;39016519;-84
2021/07/23 08:56:24;;;;;;;;;;;30.40;78.30;;;;;;5;36013009;39015370;-84
2021/07/23 08:59:34;;;;;;;;;;;31.80;74.60;;;;;;5;36013632;39015401;-84
2021/07/23 09:02:54;;;;;;;;;;;33.10;71.10;;;;;;5;36014257;39016092;-84
2021/07/23 09:06:14;;;;;;;;;;;34.70;64.50;;;;;;5;36012919;39014873;-84
2021/07/23 09:09:28;;;;;;;;;;;36.10;59.70;;;;;;5;36012887;39015618;-85
2021/07/23 09:12:44;;;;;;;;;;;37.50;54.80;;;;;;5;36015949;39017128;-85
2021/07/23 09:15:58;;;;;;;;;;;38.20;51.90;;;;;;5;36013354;39015815;-85
2021/07/23 09:19:11;;;;;;;;;;;39.30;50.20;;;;;;5;36013345;39015578;-85
2021/07/23 09:22:40;;;;;;;;;;;39.80;47.60;;;;;;5;36014560;39766263;-84
2021/07/23 09:25:50;;;;;;;;;;;40.00;45.70;;;;;;5;36013586;39016032;-85
2021/07/23 09:29:03;;;;;;;;;;;40.70;43.40;;;;;;5;36014301;39016029;-85
2021/07/23 09:32:15;;;;;;;;;;;41.40;43.50;;;;;;5;36013591;39015195;-85
2021/07/23 09:35:28;;;;;;;;;;;42.60;42.30;;;;;;5;36013680;39015319;-85
2021/07/23 09:38:45;;;;;;;;;;;42.80;41.70;;;;;;5;36014837;39015370;-84
2021/07/23 09:42:01;;;;;;;;;;;43.60;39.50;;;;;;5;36013259;39016732;-84
2021/07/23 09:45:24;;;;;;;;;;;44.00;40.40;;;;;;5;36014170;39015280;-85
2021/07/23 09:48:37;;;;;;;;;;;44.10;38.50;;;;;;5;36013848;39016315;-84
2021/07/23 09:51:48;;;;;;;;;;;44.80;37.20;;;;;;5;36013299;39016565;-85
2021/07/23 09:55:02;;;;;;;;;;;45.30;37.10;;;;;;5;36013874;39765733;-84
2021/07/23 09:58:25;;;;;;;;;;;45.70;35.80;;;;;;5;36013854;39015518;-84
2021/07/23 10:01:40;;;;;;;;;;;45.80;35.40;;;;;;5;36013244;39016721;-85
2021/07/23 10:04:50;;;;;;;;;;;46.50;34.50;;;;;;5;36014023;39015738;-84
2021/07/23 10:08:07;;;;;;;;;;;46.60;34.40;;;;;;5;36012814;39015813;-85
2021/07/23 10:11:20;;;;;;;;;;;47.20;34.90;;;;;;5;36014090;39015798;-84
2021/07/23 10:14:35;;;;;;;;;;;47.70;33.70;;;;;;5;36014155;39015376;-84
2021/07/23 10:17:46;;;;;;;;;;;47.50;32.60;;;;;;5;36014172;39015726;-84
2021/07/23 10:20:58;;;;;;;;;;;47.60;32.00;;;;;;5;36013927;39015713;-84
2021/07/23 10:24:11;;;;;;;;;;;47.20;32.10;;;;;;5;36014577;39016500;-84
2021/07/23 10:27:25;;;;;;;;;;;47.60;32.50;;;;;;5;36013522;39767238;-84
2021/07/23 10:30:35;;;;;;;;;;;48.30;31.90;;;;;;5;36013428;39016308;-85
2021/07/23 10:33:53;;;;;;;;;;;48.50;31.40;;;;;;5;36013053;39016249;-85
2021/07/23 10:37:05;;;;;;;;;;;48.10;31.20;;;;;;5;36012943;39015608;-85
2021/07/23 10:40:19;;;;;;;;;;;48.20;32.20;;;;;;5;36014144;39015917;-85
2021/07/23 10:43:34;;;;;;;;;;;48.80;31.30;;;;;;5;36013969;39016531;-85
2021/07/23 10:46:46;;;;;;;;;;;49.40;30.50;;;;;;5;36013087;39016064;-84
2021/07/23 10:49:59;;;;;;;;;;;49.00;30.70;;;;;;5;36014263;39015658;-84
2021/07/23 10:53:26;;;;;;;;;;;49.60;30.50;;;;;;5;36013090;39016247;-85
2021/07/23 10:56:56;;;;;;;;;;;49.60;30.20;;;;;;5;36014635;39015778;-85
2021/07/23 11:00:11;;;;;;;;;;;49.80;30.30;;;;;;5;36013366;39766488;-85
2021/07/23 11:03:43;;;;;;;;;;;49.60;30.70;;;;;;5;36012823;39016660;-85
2021/07/23 11:06:59;;;;;;;;;;;49.80;30.20;;;;;;5;36014231;39015283;-85
2021/07/23 11:10:11;;;;;;;;;;;49.80;29.70;;;;;;5;36013912;39015287;-85
2021/07/23 11:13:24;;;;;;;;;;;49.90;29.90;;;;;;5;36013785;39015965;-86
2021/07/23 11:16:36;;;;;;;;;;;50.10;29.60;;;;;;5;36013331;39016230;-84
2021/07/23 11:19:52;;;;;;;;;;;50.40;29.70;;;;;;5;36015082;39015885;-86
2021/07/23 11:23:02;;;;;;;;;;;50.30;29.60;;;;;;5;36013550;39016933;-84
2021/07/23 11:26:27;;;;;;;;;;;50.50;29.40;;;;;;5;36014488;39015799;-83
2021/07/23 11:29:41;;;;;;;;;;;50.40;29.20;;;;;;5;36014445;39015092;-83
2021/07/23 11:32:56;;;;;;;;;;;50.50;29.50;;;;;;5;36014661;39765193;-83
2021/07/23 11:36:06;;;;;;;;;;;51.10;29.40;;;;;;5;36013638;39015650;-85
2021/07/23 11:39:25;;;;;;;;;;;51.10;29.10;;;;;;5;36013313;39016975;-84
2021/07/23 11:42:39;;;;;;;;;;;50.80;29.00;;;;;;5;36014024;39014833;-83
2021/07/23 11:45:52;;;;;;;;;;;51.10;29.00;;;;;;5;36012917;39015541;-85
2021/07/23 11:49:02;;;;;;;;;;;50.50;29.00;;;;;;5;36016132;39014850;-85
2021/07/23 11:52:19;;;;;;;;;;;50.10;28.90;;;;;;5;36013275;39015888;-84
2021/07/23 11:55:39;;;;;;;;;;;50.10;29.00;;;;;;5;36013221;39017134;-84
2021/07/23 11:58:54;;;;;;;;;;;49.90;28.90;;;;;;5;36013032;39015575;-83
2021/07/23 12:02:10;;;;;;;;;;;50.10;29.50;;;;;;5;36014266;39015130;-83
2021/07/23 12:05:24;;;;;;;;;;;50.30;29.20;;;;;;5;36014320;39766458;-84
2021/07/23 12:08:40;;;;;;;;;;;50.40;29.50;;;;;;5;36013369;39015465;-83
2021/07/23 12:11:53;;;;;;;;;;;49.60;29.20;;;;;;5;36013571;39015038;-83
2021/07/23 12:15:03;;;;;;;;;;;49.90;28.60;;;;;;5;36013590;39015210;-83
2021/07/23 12:18:16;;;;;;;;;;;49.50;29.10;;;;;;5;36014195;39015853;-83
2021/07/23 12:21:29;;;;;;;;;;;48.80;30.10;;;;;;5;36014171;39016724;-83
2021/07/23 12:24:42;;;;;;;;;;;48.80;30.50;;;;;;5;36013501;39015430;-83
2021/07/23 12:28:04;;;;;;;;;;;48.40;30.10;;;;;;5;36014347;39015712;-84
2021/07/23 12:31:17;;;;;;;;;;;48.50;30.80;;;;;;5;36014082;39016034;-84
2021/07/23 12:34:30;;;;;;;;;;;48.30;30.00;;;;;;5;36012949;39015892;-83
2021/07/23 12:38:02;;;;;;;;;;;48.20;30.60;;;;;;5;36013887;39765419;-84
2021/07/23 12:41:24;;;;;;;;;;;48.30;30.40;;;;;;5;36013529;39015308;-83
2021/07/23 12:44:36;;;;;;;;;;;47.90;30.80;;;;;;5;36012807;39016088;-83
2021/07/23 12:47:49;;;;;;;;;;;48.30;30.90;;;;;;5;36014824;39015954;-83
2021/07/23 12:51:06;;;;;;;;;;;47.40;31.60;;;;;;5;36014294;39015675;-83
2021/07/23 12:54:16;;;;;;;;;;;47.50;32.50;;;;;;5;36013271;39015227;-83
2021/07/23 12:57:28;;;;;;;;;;;47.20;32.10;;;;;;5;36013891;39015836;-85
2021/07/23 13:00:41;;;;;;;;;;;47.20;31.90;;;;;;5;36013113;39016084;-86
2021/07/23 13:03:56;;;;;;;;;;;47.00;31.10;;;;;;5;36013153;39015938;-85
2021/07/23 13:07:07;;;;;;;;;;;46.70;31.40;;;;;;5;36013583;39016737;-84
2021/07/23 13:10:21;;;;;;;;;;;45.60;33.50;;;;;;5;36012924;39767101;-86
2021/07/23 13:13:38;;;;;;;;;;;45.70;32.20;;;;;;5;36014209;39015871;-84
2021/07/23 13:16:50;;;;;;;;;;;46.10;31.90;;;;;;5;36013476;39014921;-85
2021/07/23 13:20:01;;;;;;;;;;;46.10;31.30;;;;;;5;36014676;39015264;-83
2021/07/23 13:23:14;;;;;;;;;;;45.00;32.10;;;;;;5;36013040;39016636;-85
2021/07/23 13:26:27;;;;;;;;;;;44.10;33.20;;;;;;5;36013976;39015921;-84
2021/07/23 13:29:40;;;;;;;;;;;43.30;34.10;;;;;;5;36015038;39015852;-85
2021/07/23 13:32:50;;;;;;;;;;;43.30;35.10;;;;;;5;36013974;39015731;-85
2021/07/23 13:36:07;;;;;;;;;;;43.40;34.70;;;;;;5;36013257;39015790;-85
2021/07/23 13:39:20;;;;;;;;;;;43.30;34.40;;;;;;5;36013752;39016164;-85
2021/07/23 13:42:35;;;;;;;;;;;42.90;34.60;;;;;;5;36013490;39765493;-85
2021/07/23 13:45:44;;;;;;;;;;;43.00;34.70;;;;;;5;36014776;39016048;-85
2021/07/23 13:48:57;;;;;;;;;;;42.80;33.20;;;;;;5;36014097;39016179;-85
2021/07/23 13:52:10;;;;;;;;;;;42.50;33.40;;;;;;5;36014409;39015816;-85
2021/07/23 13:55:22;;;;;;;;;;;41.90;33.10;;;;;;5;36013924;39015306;-85
2021/07/23 13:58:32;;;;;;;;;;;41.50;33.60;;;;;;5;36013027;39015622;-85
2021/07/23 14:01:45;;;;;;;;;;;40.50;35.20;;;;;;5;36013002;39016691;-85
2021/07/23 14:04:58;;;;;;;;;;;39.70;34.20;;;;;;5;36014189;39016660;-85
2021/07/23 14:08:10;;;;;;;;;;;39.50;35.20;;;;;;5;36014632;39015796;-85
2021/07/23 14:11:23;;;;;;;;;;;39.70;35.00;;;;;;5;36013971;39015276;-85
2021/07/23 14:14:38;;;;;;;;;;;39.20;34.50;;;;;;5;36014145;39766295;-85
2021/07/23 14:17:50;;;;;;;;;;;38.70;35.20;;;;;;5;36013342;39015248;-85
2021/07/23 14:21:03;;;;;;;;;;;38.50;35.60;;;;;;5;36013359;39015811;-85
2021/07/23 14:24:12;;;;;;;;;;;38.50;35.50;;;;;;5;36013573;39015443;-85
2021/07/23 14:27:25;;;;;;;;;;;38.40;35.10;;;;;;5;36013129;39015800;-85
2021/07/23 14:30:38;;;;;;;;;;;38.00;35.10;;;;;;5;36013735;39015978;-85
2021/07/23 14:33:50;;;;;;;;;;;37.20;36.70;;;;;;5;36014217;39014825;-85
2021/07/23 14:37:01;;;;;;;;;;;36.80;37.80;;;;;;5;36013160;39015301;-85
2021/07/23 14:40:13;;;;;;;;;;;36.60;38.70;;;;;;5;36013774;39015955;-85
2021/07/23 14:43:26;;;;;;;;;;;36.50;38.00;;;;;;5;36013668;39015402;-85
2021/07/23 14:46:41;;;;;;;;;;;36.50;38.00;;;;;;5;36013736;39764745;-85
2021/07/23 14:49:50;;;;;;;;;;;36.40;36.10;;;;;;5;36013139;39016244;-85
2021/07/23 14:53:03;;;;;;;;;;;36.40;38.90;;;;;;5;36013573;39015654;-85
2021/07/23 14:56:16;;;;;;;;;;;36.50;38.30;;;;;;5;36013510;39014745;-85
2021/07/23 14:59:29;;;;;;;;;;;36.50;38.80;;;;;;5;36013492;39015057;-85
2021/07/23 15:02:39;;;;;;;;;;;36.60;37.90;;;;;;5;36013702;39022024;-85
2021/07/23 15:05:51;;;;;;;;;;;36.40;38.40;;;;;;5;36012713;39015208;-85
2021/07/23 15:09:04;;;;;;;;;;;35.90;36.90;;;;;;5;36013990;39015344;-83
2021/07/23 15:12:16;;;;;;;;;;;35.60;37.40;;;;;;5;36014105;39014870;-85
2021/07/23 15:15:26;;;;;;;;;;;35.40;38.70;;;;;;5;36013669;39015417;-85
2021/07/23 15:18:43;;;;;;;;;;;35.30;38.20;;;;;;5;36014094;39764701;-86
2021/07/23 15:21:59;;;;;;;;;;;35.20;39.40;;;;;;5;36012804;39016307;-86
2021/07/23 15:25:12;;;;;;;;;;;35.00;39.40;;;;;;5;36014107;39015986;-86
2021/07/23 15:28:22;;;;;;;;;;;34.90;40.10;;;;;;5;36013285;39015253;-87
2021/07/23 15:31:35;;;;;;;;;;;34.70;39.50;;;;;;5;36013262;39015618;-86
2021/07/23 15:34:47;;;;;;;;;;;34.50;40.00;;;;;;5;36013868;39015370;-86
2021/07/23 15:38:00;;;;;;;;;;;34.20;40.30;;;;;;5;36013206;39016088;-85
2021/07/23 15:41:10;;;;;;;;;;;34.00;40.10;;;;;;5;36013716;39015226;-85
2021/07/23 15:44:23;;;;;;;;;;;33.90;41.80;;;;;;5;36013477;39015985;-86
2021/07/23 15:47:41;;;;;;;;;;;33.90;41.60;;;;;;5;36015055;39015199;-85
2021/07/23 15:50:56;;;;;;;;;;;33.80;42.10;;;;;;5;36013650;39764481;-85
2021/07/23 15:54:05;;;;;;;;;;;33.60;41.30;;;;;;5;36014099;39014843;-85
2021/07/23 15:57:18;;;;;;;;;;;33.40;42.00;;;;;;5;36012914;39014860;-86
2021/07/23 16:00:30;;;;;;;;;;;33.30;41.80;;;;;;5;36012940;39015083;-85
2021/07/23 16:03:43;;;;;;;;;;;33.00;41.80;;;;;;5;36013762;39014977;-86
2021/07/23 16:06:53;;;;;;;;;;;32.90;42.30;;;;;;5;36013276;39015818;-85
2021/07/23 16:10:06;;;;;;;;;;;32.60;41.70;;;;;;5;36013046;39015784;-86
2021/07/23 16:13:18;;;;;;;;;;;32.40;42.90;;;;;;5;36014003;39014918;-85
2021/07/23 16:16:31;;;;;;;;;;;32.20;42.20;;;;;;5;36014400;39015505;-85
2021/07/23 16:19:41;;;;;;;;;;;32.00;41.90;;;;;;5;36014448;39015422;-85
2021/07/23 16:22:55;;;;;;;;;;;31.70;42.00;;;;;;5;36012982;39765103;-86
2021/07/23 16:26:08;;;;;;;;;;;31.70;40.90;;;;;;5;36012991;39015946;-85
2021/07/23 16:29:20;;;;;;;;;;;31.50;39.00;;;;;;5;36012867;39015624;-84
2021/07/23 16:32:30;;;;;;;;;;;31.40;39.50;;;;;;5;36013053;39017339;-85
2021/07/23 16:35:43;;;;;;;;;;;31.20;38.50;;;;;;5;36014195;39015153;-86
2021/07/23 16:38:55;;;;;;;;;;;31.10;37.80;;;;;;5;36013284;39015341;-85
2021/07/23 16:42:08;;;;;;;;;;;30.90;39.40;;;;;;5;36012949;39015538;-84
2021/07/23 16:45:18;;;;;;;;;;;30.60;39.00;;;;;;5;36014360;39014891;-85
2021/07/23 16:48:30;;;;;;;;;;;30.20;39.10;;;;;;5;36012905;39015057;-85
2021/07/23 16:51:43;;;;;;;;;;;30.10;41.10;;;;;;5;36013353;39015145;-85
2021/07/23 16:54:57;;;;;;;;;;;29.90;41.70;;;;;;5;36014228;39765309;-85
2021/07/23 16:58:07;;;;;;;;;;;29.80;41.90;;;;;;5;36015258;39014917;-86
2021/07/23 17:01:20;;;;;;;;;;;29.70;42.80;;;;;;5;36013812;39015383;-85
2021/07/23 17:04:33;;;;;;;;;;;29.70;42.20;;;;;;5;36013466;39016255;-86
2021/07/23 17:07:45;;;;;;;;;;;29.80;42.10;;;;;;5;36013041;39015271;-85
2021/07/23 17:10:55;;;;;;;;;;;29.80;42.30;;;;;;5;36013171;39015715;-86
2021/07/23 17:14:08;;;;;;;;;;;29.80;41.70;;;;;;5;36013251;39015669;-85
2021/07/23 17:17:20;;;;;;;;;;;29.80;41.80;;;;;;5;36012916;39016223;-85
2021/07/23 17:20:33;;;;;;;;;;;29.80;42.90;;;;;;5;36014123;39015502;-86
2021/07/23 17:23:43;;;;;;;;;;;29.60;43.40;;;;;;5;36014000;39015080;-86
2021/07/23 17:26:57;;;;;;;;;;;29.40;43.40;;;;;;5;36013771;39765667;-86
2021/07/23 17:30:10;;;;;;;;;;;29.20;43.60;;;;;;5;36013230;39016417;-87
2021/07/23 17:33:22;;;;;;;;;;;29.10;45.50;;;;;;5;36013725;39015545;-86
2021/07/23 17:36:32;;;;;;;;;;;28.90;46.50;;;;;;5;36014147;39014859;-85
2021/07/23 17:39:45;;;;;;;;;;;28.70;46.00;;;;;;5;36012762;39015195;-85
2021/07/23 17:42:57;;;;;;;;;;;28.60;47.00;;;;;;5;36013263;39014392;-86
2021/07/23 17:46:12;;;;;;;;;;;28.40;46.70;;;;;;5;36012879;39014882;-85
2021/07/23 17:49:22;;;;;;;;;;;28.30;46.00;;;;;;5;36013097;39014855;-86
2021/07/23 17:52:34;;;;;;;;;;;28.10;47.00;;;;;;5;36013449;39016549;-87
2021/07/23 17:55:47;;;;;;;;;;;28.00;48.50;;;;;;5;36013310;39016019;-87
2021/07/23 17:59:01;;;;;;;;;;;27.80;50.20;;;;;;5;36013244;39765823;-86
2021/07/23 18:02:11;;;;;;;;;;;27.60;51.10;;;;;;5;36013361;39015874;-86
2021/07/23 18:05:24;;;;;;;;;;;27.40;52.30;;;;;;5;36013515;39015017;-86
2021/07/23 18:08:37;;;;;;;;;;;27.20;52.50;;;;;;5;36013850;39014995;-85
2021/07/23 18:11:50;;;;;;;;;;;27.00;53.70;;;;;;5;36015103;39014844;-84
2021/07/23 18:14:59;;;;;;;;;;;26.90;52.70;;;;;;5;36013113;39015157;-85
2021/07/23 18:18:12;;;;;;;;;;;26.70;53.30;;;;;;5;36013245;39015608;-87
2021/07/23 18:21:24;;;;;;;;;;;26.60;54.10;;;;;;5;36014037;39015430;-84
2021/07/23 18:24:37;;;;;;;;;;;26.40;54.10;;;;;;5;36014244;39015284;-86
2021/07/23 18:27:50;;;;;;;;;;;26.20;53.50;;;;;;5;36013880;39015615;-86
2021/07/23 18:31:04;;;;;;;;;;;26.10;53.40;;;;;;5;36013970;39764988;-86
2021/07/23 18:34:17;;;;;;;;;;;25.90;53.50;;;;;;5;36012813;39015305;-84
2021/07/23 18:37:30;;;;;;;;;;;25.80;54.60;;;;;;5;36014547;39014733;-87
2021/07/23 18:40:40;;;;;;;;;;;25.60;55.80;;;;;;5;36013853;39015482;-86
2021/07/23 18:43:53;;;;;;;;;;;25.50;56.70;;;;;;5;36012961;39015029;-87
2021/07/23 18:47:08;;;;;;;;;;;25.30;57.60;;;;;;5;36012766;39015808;-86
2021/07/23 18:50:21;;;;;;;;;;;25.20;58.60;;;;;;5;36012817;39016151;-85
2021/07/23 18:53:30;;;;;;;;;;;25.10;59.60;;;;;;5;36013877;39015525;-87
2021/07/23 18:56:43;;;;;;;;;;;24.90;61.10;;;;;;5;36012591;39015430;-85
2021/07/23 18:59:56;;;;;;;;;;;24.70;62.00;;;;;;5;36013627;39015760;-86
2021/07/23 19:03:11;;;;;;;;;;;24.60;62.00;;;;;;5;36014008;39765127;-87
2021/07/23 19:06:21;;;;;;;;;;;24.40;62.70;;;;;;5;36014015;39015696;-87
2021/07/23 19:09:33;;;;;;;;;;;24.20;62.70;;;;;;5;36014432;39015601;-86
2021/07/23 19:12:46;;;;;;;;;;;24.10;62.90;;;;;;5;36012912;39015785;-86
2021/07/23 19:15:59;;;;;;;;;;;23.90;63.60;;;;;;5;36012864;39015658;-85
2021/07/23 19:19:08;;;;;;;;;;;23.80;63.40;;;;;;5;36013259;39015527;-84
2021/07/23 19:22:21;;;;;;;;;;;23.70;64.90;;;;;;5;36014488;39016247;-87
2021/07/23 19:25:34;;;;;;;;;;;23.60;66.20;;;;;;5;36013013;39015568;-85
2021/07/23 19:28:46;;;;;;;;;;;23.50;66.80;;;;;;5;36014396;39015423;-85
2021/07/23 19:31:56;;;;;;;;;;;23.30;68.60;;;;;;5;36015203;39014851;-85
2021/07/23 19:35:10;;;;;;;;;;;23.20;69.10;;;;;;5;36012816;39765129;-86
2021/07/23 19:38:23;;;;;;;;;;;23.00;69.40;;;;;;5;36013500;39015108;-85
2021/07/23 19:41:36;;;;;;;;;;;22.90;69.80;;;;;;5;36013455;39016316;-86
2021/07/23 19:44:45;;;;;;;;;;;22.80;70.20;;;;;;5;36014161;39015142;-84
2021/07/23 19:47:58;;;;;;;;;;;22.70;70.70;;;;;;5;36014964;39016211;-86
2021/07/23 19:51:11;;;;;;;;;;;22.60;70.70;;;;;;5;36013810;39015878;-86
2021/07/23 19:54:24;;;;;;;;;;;22.50;70.50;;;;;;5;36013067;39015913;-85
2021/07/23 19:57:39;;;;;;;;;;;22.40;70.10;;;;;;5;36013120;39016378;-87
2021/07/23 20:00:52;;;;;;;;;;;22.30;70.60;;;;;;5;36013707;39015605;-86
2021/07/23 20:04:05;;;;;;;;;;;22.20;71.80;;;;;;5;36014613;39014864;-86
2021/07/23 20:07:19;;;;;;;;;;;22.10;73.50;;;;;;5;36013214;39766075;-86
2021/07/23 20:10:30;;;;;;;;;;;22.00;73.40;;;;;;5;36013951;39015427;-86
2021/07/23 20:13:42;;;;;;;;;;;21.90;75.30;;;;;;5;36013606;39015660;-85
2021/07/23 20:16:55;;;;;;;;;;;21.80;74.70;;;;;;5;36013063;39015520;-85
2021/07/23 20:20:09;;;;;;;;;;;21.70;76.00;;;;;;5;36013484;39015492;-84
2021/07/23 20:23:19;;;;;;;;;;;21.70;76.90;;;;;;5;36013214;39015762;-85
2021/07/23 20:26:31;;;;;;;;;;;21.60;80.10;;;;;;5;36013318;39015991;-85
2021/07/23 20:29:44;;;;;;;;;;;21.40;81.20;;;;;;5;36014111;39015040;-85
2021/07/23 20:32:56;;;;;;;;;;;21.40;82.00;;;;;;5;36013627;39014956;-86
2021/07/23 20:36:10;;;;;;;;;;;21.30;82.80;;;;;;5;36014642;39015220;-86
2021/07/23 20:39:25;;;;;;;;;;;21.30;84.90;;;;;;5;36013788;39765973;-86
2021/07/23 20:42:37;;;;;;;;;;;21.30;85.50;;;;;;5;36013991;39014679;-86
2021/07/23 20:45:50;;;;;;;;;;;21.20;86.10;;;;;;5;36013823;39017597;-85
2021/07/23 20:48:59;;;;;;;;;;;21.20;86.70;;;;;;5;36014482;39017330;-87